Latest Weather Observations for Warwick

IDQ60901

Issued at 10:01 am EST Saturday 6 February 2016 (issued every 10 minutes, with the page automatically refreshed every 10 minutes)

About weather observations | Map of Brisbane area stations | Latest observations for Brisbane area | Other Formats
Station Details ID: 041525 Name: WARWICK Lat: -28.21 Lon: 152.10 Height: 475.4 m
Data from the previous 72 hours. | See also: Recent months at Warwick
Date/Time
EST
Tmp

°C
App
Tmp
°C
Dew
Point
°C
Rel
Hum
%
Delta-T

°C
Wind Press
QNH
hPa
Press
MSL
hPa
Rain
since
9 am
mm
Dir
 
Spd
km/h
Gust
km/h
Spd
kts
Gust
kts
06/10:00am 22.6 21.6 17.9 75 3.0 SE 20 35 11 19 1013.7 1011.1 0.0
06/09:30am 21.4 19.3 17.2 77 2.6 SE 24 39 13 21 1013.7 1011.1 0.0
06/09:00am 22.4 20.9 17.7 75 3.0 SE 22 35 12 19 1013.6 1011.0 0.0
06/08:30am 20.2 18.4 17.0 82 2.0 SE 22 37 12 20 1013.7 1011.1 0.0
06/08:00am 19.9 19.2 17.3 85 1.6 SE 17 30 9 16 1013.6 1011.0 0.0
06/07:30am 19.2 18.0 17.1 88 1.3 SE 19 28 10 15 1013.5 1010.9 0.0
06/07:00am 19.2 18.8 17.1 88 1.3 SE 15 24 8 13 1013.0 1010.3 0.0
06/06:30am 18.8 18.0 17.0 89 1.1 SE 17 24 9 13 1012.5 1009.9 0.0
06/06:00am 18.7 17.8 16.9 89 1.1 SE 17 26 9 14 1012.2 1009.6 0.0
06/05:30am 18.7 18.6 16.9 89 1.1 SE 13 22 7 12 1011.7 1009.1 0.0
06/05:00am 18.8 17.9 16.9 89 1.2 SE 17 22 9 12 1011.3 1008.7 0.0
06/04:30am 19.0 18.4 16.7 86 1.4 SE 15 28 8 15 1011.0 1008.3 0.0
06/04:00am 19.2 18.2 16.6 85 1.6 SE 17 28 9 15 1011.0 1008.3 0.0
06/03:30am 19.3 18.2 16.4 83 1.8 SE 17 24 9 13 1010.6 1007.9 0.0
06/03:00am 19.2 18.1 16.4 84 1.7 SE 17 32 9 17 1010.6 1007.9 0.0
06/02:30am 19.3 17.8 16.4 83 1.8 SE 19 30 10 16 1010.7 1008.0 0.0
06/02:00am 19.2 17.8 16.6 85 1.6 SE 19 35 10 19 1010.9 1008.2 0.0
06/01:30am 19.1 18.2 16.8 86 1.4 SE 17 28 9 15 1011.4 1008.8 0.0
06/01:00am 19.1 18.5 16.7 86 1.5 SE 15 30 8 16 1011.5 1008.9 0.0
06/12:30am 19.2 18.1 16.4 84 1.7 SE 17 26 9 14 1011.8 1009.2 0.0
06/12:00am 19.2 18.4 16.1 82 1.9 SE 15 22 8 12 1012.1 1009.5 0.0
 
Date/Time
EST
Tmp

°C
App
Tmp
°C
Dew
Point
°C
Rel
Hum
%
Delta-T

°C
Wind Press
QNH
hPa
Press
MSL
hPa
Rain
since
9 am
mm
Dir
 
Spd
km/h
Gust
km/h
Spd
kts
Gust
kts
05/11:30pm 19.5 17.4 16.1 81 2.1 SE 22 32 12 17 1012.4 1009.8 0.0
05/11:00pm 19.6 17.9 16.2 81 2.1 SE 20 30 11 16 1012.6 1010.0 0.0
05/10:30pm 19.7 17.7 16.4 81 2.0 SE 22 35 12 19 1013.0 1010.3 0.0
05/10:00pm 19.5 17.0 16.1 81 2.1 SE 24 35 13 19 1013.1 1010.5 0.0
05/09:30pm 20.1 18.7 17.0 82 1.9 SE 20 32 11 17 1013.2 1010.6 0.0
05/09:00pm 19.9 19.2 18.2 90 1.1 SSE 19 26 10 14 1013.2 1010.6 0.0
05/08:30pm 20.2 19.8 18.0 87 1.4 SE 17 26 9 14 1013.0 1010.3 0.0
05/08:00pm 20.3 21.0 17.9 86 1.5 SE 11 20 6 11 1012.4 1009.8 0.0
05/07:30pm 21.3 22.7 17.8 80 2.2 ESE 7 19 4 10 1012.0 1009.4 0.0
05/07:00pm 22.0 22.2 17.7 76 2.7 ESE 13 24 7 13 1011.4 1008.8 0.0
05/06:30pm 22.5 22.2 17.3 72 3.3 SE 15 26 8 14 1011.0 1008.3 0.0
05/06:00pm 23.6 23.0 17.6 69 3.8 SE 17 28 9 15 1010.6 1007.9 0.0
05/05:30pm 24.1 24.1 18.0 68 3.9 SE 15 28 8 15 1010.0 1007.4 0.0
05/05:00pm 24.9 24.2 18.2 66 4.3 SE 19 28 10 15 1009.9 1007.3 0.0
05/04:30pm 25.0 24.7 18.2 66 4.4 ESE 17 30 9 16 1009.8 1007.2 0.0
05/04:00pm 25.2 25.2 18.2 65 4.5 ESE 15 24 8 13 1009.7 1007.1 0.0
05/03:30pm 26.6 25.5 17.2 56 6.0 SE 19 37 10 20 1009.6 1007.0 0.0
05/03:00pm 26.0 24.2 17.0 57 5.7 SE 22 35 12 19 1009.6 1007.0 0.0
05/02:30pm 26.4 25.9 17.9 59 5.5 SE 17 28 9 15 1010.1 1007.5 0.0
05/02:00pm 25.6 25.6 18.2 63 4.8 ESE 15 26 8 14 1010.7 1008.0 0.0
05/01:30pm 25.9 26.1 18.5 63 4.8 ESE 15 32 8 17 1010.8 1008.1 0.0
05/01:00pm 24.8 23.9 18.3 67 4.2 SE 20 30 11 16 1011.0 1008.3 0.0
05/12:30pm 24.7 24.3 18.0 66 4.3 SE 17 24 9 13 1011.2 1008.6 0.0
05/12:00pm 23.7 23.5 17.6 68 3.9 SE 15 28 8 15 1011.7 1009.1 0.0
05/11:30am 23.2 22.7 17.7 71 3.5 SE 17 30 9 16 1011.9 1009.3 0.0
05/11:00am 23.3 22.1 17.6 70 3.6 SE 20 33 11 18 1011.8 1009.2 0.0
05/10:30am 23.5 22.6 17.8 70 3.6 SE 19 32 10 17 1011.8 1009.2 0.0
05/10:00am 23.2 22.2 17.5 70 3.6 SE 19 30 10 16 1011.7 1009.1 0.0
05/09:30am 23.1 21.8 17.2 69 3.7 SE 20 41 11 22 1011.6 1009.0 0.0
05/09:00am 22.8 21.8 17.6 72 3.3 SE 19 28 10 15 1011.2 1008.6 12.6
05/08:30am 21.7 20.4 17.2 75 2.8 SE 20 33 11 18 1011.1 1008.4 12.6
05/08:00am 21.3 20.3 17.5 79 2.4 SE 19 35 10 19 1011.1 1008.4 12.6
05/07:30am 20.4 19.1 17.2 82 2.0 SE 20 33 11 18 1010.8 1008.1 12.6
05/07:00am 20.1 19.3 17.2 83 1.8 SE 17 33 9 18 1010.6 1007.9 12.6
05/06:30am 19.9 18.4 16.8 82 1.9 SE 20 33 11 18 1010.1 1007.5 12.6
05/06:00am 19.8 19.2 16.6 82 2.0 SE 15 28 8 15 1009.8 1007.2 12.6
05/05:30am 19.7 18.7 16.6 82 1.9 SE 17 28 9 15 1009.3 1006.7 12.6
05/05:00am 19.7 18.6 16.4 81 2.0 SE 17 28 9 15 1008.9 1006.2 12.6
05/04:30am 19.7 18.4 16.8 83 1.8 SE 19 28 10 15 1008.6 1005.9 12.6
05/04:00am 19.5 19.5 17.1 86 1.5 SE 13 20 7 11 1008.5 1005.8 12.6
05/03:30am 19.8 18.9 16.9 83 1.8 SE 17 26 9 14 1008.2 1005.6 12.6
05/03:00am 19.8 19.0 17.1 84 1.7 SE 17 24 9 13 1008.5 1005.8 12.6
05/02:30am 19.8 19.3 16.9 83 1.8 SE 15 26 8 14 1008.8 1006.1 12.6
05/02:00am 19.8 19.3 16.9 83 1.8 SE 15 26 8 14 1008.7 1006.0 12.6
05/01:30am 19.9 19.5 17.2 84 1.7 SE 15 24 8 13 1008.9 1006.2 12.6
05/01:00am 19.8 19.9 17.4 86 1.5 SE 13 20 7 11 1009.1 1006.4 12.4
05/12:30am 19.4 20.0 17.6 89 1.1 ESE 11 19 6 10 1009.5 1006.9 12.4
05/12:00am 19.5 20.1 17.6 89 1.2 SE 11 17 6 9 1010.2 1007.6 12.4
 
Date/Time
EST
Tmp

°C
App
Tmp
°C
Dew
Point
°C
Rel
Hum
%
Delta-T

°C
Wind Press
QNH
hPa
Press
MSL
hPa
Rain
since
9 am
mm
Dir
 
Spd
km/h
Gust
km/h
Spd
kts
Gust
kts
04/11:30pm 19.3 20.8 18.0 92 0.8 ESE 7 13 4 7 1010.4 1007.8 12.4
04/11:00pm 19.4 20.2 18.1 92 0.8 SE 11 17 6 9 1010.8 1008.1 12.4
04/10:30pm 19.9 19.8 17.8 88 1.3 SE 15 24 8 13 1010.7 1008.0 12.4
04/10:00pm 19.7 21.2 18.1 90 1.0 SE 7 11 4 6 1010.7 1008.0 12.4
04/09:30pm 19.4 22.0 18.3 93 0.7 SE 2 7 1 4 1010.8 1008.1 12.4
04/09:00pm 19.3 21.1 18.2 93 0.7 ESE 6 11 3 6 1010.7 1008.0 12.4
04/08:30pm 19.4 20.5 18.0 92 0.9 ESE 9 15 5 8 1010.7 1008.0 12.4
04/08:00pm 19.2 19.5 17.9 92 0.8 E 13 19 7 10 1010.1 1007.5 12.2
04/07:30pm 19.1 20.3 18.3 95 0.5 SSE 9 15 5 8 1010.2 1007.6 12.0
04/07:00pm 18.9 20.1 18.3 96 0.4 SSE 9 17 5 9 1009.8 1007.2 11.0
04/06:30pm 19.2 20.4 18.3 94 0.6 SE 9 15 5 8 1009.4 1006.8 8.6
04/06:00pm 19.1 20.2 18.1 94 0.6 SE 9 17 5 9 1008.7 1006.0 8.6
04/05:30pm 19.1 19.6 18.3 95 0.5 SE 13 19 7 10 1008.6 1005.9 8.6
04/05:00pm 18.9 18.8 17.9 94 0.6 SE 15 22 8 12 1007.8 1005.2 8.0
04/04:30pm 19.7 21.2 18.8 94 0.6 ESE 9 20 5 11 1007.7 1005.1 7.4
04/04:00pm 19.3 20.2 18.5 95 0.5 SE 11 17 6 9 1007.7 1005.1 5.2
04/03:30pm 19.8 20.4 18.5 92 0.8 SE 13 22 7 12 1007.3 1004.6 0.2
04/03:00pm 21.3 20.9 18.0 81 2.1 SSE 17 24 9 13 1007.1 1004.4 0.0
04/02:30pm 22.8 21.6 17.4 71 3.4 SE 20 33 11 18 1007.2 1004.5 0.0
04/02:00pm 23.1 22.1 17.6 71 3.5 SSE 19 33 10 18 1007.4 1004.8 0.0
04/01:30pm 23.1 22.1 17.9 72 3.3 SSE 20 35 11 19 1007.7 1005.1 0.0
04/01:00pm 22.4 20.9 17.8 75 2.9 SE 22 33 12 18 1008.1 1005.5 0.0
04/12:30pm 22.4 19.6 18.2 77 2.7 SSE 30 43 16 23 1008.5 1005.8 0.0
04/12:00pm 23.2 21.4 18.7 76 2.9 SSE 26 44 14 24 1008.7 1006.0 0.0
04/11:30am 23.1 20.8 19.3 79 2.5 SSE 30 44 16 24 1008.6 1005.9 0.0
04/11:00am 22.6 21.1 19.5 82 2.0 SSE 26 39 14 21 1008.4 1005.7 0.0
04/10:30am 23.2 23.2 20.2 83 2.0 SSE 20 35 11 19 1008.1 1005.5 0.0
04/10:00am 23.9 24.2 20.8 83 2.1 SSE 20 32 11 17 1007.6 1005.0 0.0
04/09:30am 23.8 24.8 21.0 84 1.9 SSE 17 24 9 13 1007.8 1005.2 0.0
04/09:00am 23.3 24.2 20.9 86 1.6 SSE 17 28 9 15 1007.8 1005.2 0.0
04/08:30am 23.1 24.4 20.8 87 1.5 SSE 15 24 8 13 1007.7 1005.1 0.0
04/08:00am 22.6 24.6 20.8 89 1.2 SSE 11 19 6 10 1007.6 1005.0 0.0
04/07:30am 22.2 23.8 20.7 91 1.0 SSE 13 22 7 12 1007.4 1004.8 0.0
04/07:00am 22.0 23.5 20.6 92 0.9 SSE 13 20 7 11 1007.1 1004.4 0.0
04/06:30am 21.9 25.2 20.7 93 0.8 S 4 9 2 5 1006.9 1004.2 0.0
04/06:00am 21.7 24.3 20.5 93 0.8 S 7 13 4 7 1006.6 1003.9 0.0
04/05:30am 21.7 24.0 20.6 93 0.7 SSE 9 15 5 8 1006.2 1003.5 0.0
04/05:00am 21.9 24.9 20.8 93 0.7 SE 6 11 3 6 1005.6 1003.0 0.0
04/04:30am 22.0 25.8 20.9 93 0.7 ESE 2 9 1 5 1005.3 1002.6 0.0
04/04:00am 22.1 25.3 21.2 95 0.6 SE 6 9 3 5 1005.0 1002.3 0.0
04/03:30am 22.4 25.6 21.7 96 0.5 S 7 13 4 7 1004.7 1002.0 0.0
04/03:00am 22.6 24.1 22.0 96 0.4 SSE 17 22 9 12 1004.4 1001.7 0.0
04/02:30am 23.7 26.8 22.1 91 1.1 SSE 9 17 5 9 1004.5 1001.8 0.0
04/02:00am 23.7 27.4 22.2 91 1.0 S 6 9 3 5 1004.5 1001.8 0.0
04/01:30am 23.6 28.5 22.3 92 0.9 CALM 0 0 0 0 1004.8 1002.1 0.0
04/01:00am 23.8 28.6 22.2 91 1.1 CALM 0 0 0 0 1005.1 1002.4 0.0
04/12:30am 23.7 28.1 22.1 91 1.1 NNE 2 6 1 3 1005.5 1002.9 0.0
04/12:00am 23.3 26.7 22.0 92 0.9 NE 7 11 4 6 1005.7 1003.1 0.0
 
Date/Time
EST
Tmp

°C
App
Tmp
°C
Dew
Point
°C
Rel
Hum
%
Delta-T

°C
Wind Press
QNH
hPa
Press
MSL
hPa
Rain
since
9 am
mm
Dir
 
Spd
km/h
Gust
km/h
Spd
kts
Gust
kts
03/11:30pm 23.2 28.2 22.5 96 0.5 CALM 0 0 0 0 1005.4 1002.7 0.0
03/11:00pm 23.8 28.7 22.3 91 1.0 CALM 0 0 0 0 1005.3 1002.6 0.0
03/10:30pm 24.2 29.1 22.4 90 1.2 CALM 0 0 0 0 1005.4 1002.7 0.0
03/10:00pm 24.6 28.9 22.6 89 1.4 ESE 4 11 2 6 1005.5 1002.9 0.0
03/09:30pm 24.5 28.9 22.8 90 1.2 SW 4 7 2 4 1005.6 1003.0 0.0
03/09:00pm 24.5 29.7 22.8 90 1.2 CALM 0 0 0 0 1005.4 1002.7 0.0
03/08:30pm 24.7 29.7 22.5 87 1.5 CALM 0 0 0 0 1005.1 1002.4 0.0
03/08:00pm 24.6 29.5 22.4 87 1.5 CALM 0 0 0 0 1005.0 1002.3 0.0
03/07:30pm 25.3 30.3 22.5 84 1.9 CALM 0 0 0 0 1004.6 1001.9 0.0
03/07:00pm 25.9 30.4 22.9 83 2.1 NW 4 7 2 4 1004.6 1001.9 0.0
03/06:30pm 26.3 30.0 22.5 79 2.6 NNW 7 11 4 6 1003.9 1001.2 0.0
03/06:00pm 26.8 32.2 23.2 80 2.5 CALM 0 2 0 1 1003.4 1000.7 0.0
03/05:30pm 26.8 30.2 22.7 78 2.8 WNW 9 13 5 7 1003.5 1000.8 0.0
03/05:00pm 27.7 30.6 22.5 73 3.6 WSW 11 17 6 9 1003.5 1000.8 0.0
03/04:30pm 28.1 30.9 22.3 70 4.0 WSW 11 17 6 9 1002.9 1000.2 0.0
03/04:00pm 28.7 32.0 22.6 69 4.2 W 9 15 5 8 1003.2 1000.5 0.0
03/03:30pm 29.3 32.2 22.4 66 4.8 W 11 17 6 9 1003.1 1000.4 0.0
03/03:00pm 28.3 30.2 22.0 68 4.3 W 15 22 8 12 1003.5 1000.8 0.0
03/02:30pm 28.8 30.7 22.1 67 4.6 W 15 24 8 13 1004.1 1001.4 0.0
03/02:00pm 28.6 31.1 22.4 69 4.3 WNW 13 22 7 12 1004.6 1001.9 0.0
03/01:30pm 28.0 30.1 21.7 68 4.3 W 13 20 7 11 1004.7 1002.0 0.0
03/01:00pm 27.7 29.5 21.2 67 4.4 WNW 13 20 7 11 1004.8 1002.1 0.0
03/12:30pm 28.5 30.9 21.6 66 4.7 W 11 19 6 10 1005.0 1002.3 0.0
03/12:00pm 27.9 29.6 21.6 68 4.3 W 15 22 8 12 1005.4 1002.7 0.0
03/11:30am 26.9 28.7 21.1 70 3.9 NW 13 20 7 11 1006.1 1003.4 0.0
03/11:00am 26.9 29.2 21.3 71 3.8 W 11 17 6 9 1006.2 1003.5 0.0
03/10:30am 26.2 28.8 21.2 74 3.4 WSW 9 17 5 9 1006.5 1003.8 0.0

Latest Capital City Observations: Canberra | Sydney | Melbourne | Brisbane | Adelaide | Perth | Hobart | Darwin

Other Formats:

Comma delimited format used in spreadsheet applications
http://www.bom.gov.au/fwo/IDQ60901/IDQ60901.94555.axf

JavaScript Object Notation format (JSON) in row-major order
http://www.bom.gov.au/fwo/IDQ60901/IDQ60901.94555.json